Time;durP1;ratioP1;P1;durP2;ratioP2;P2;SDS_P1;SDS_P2;PMS_P1;PMS_P2;Temp;Humidity;BMP_temperature;BMP_pressure;BME280_temperature;BME280_humidity;BME280_pressure;Samples;Min_cycle;Max_cycle;Signal;HPM_P1;HPM_P2
2023/08/22 00:01:25;;;;;;;1.77;1.45;;;;;;;21.87;100.00;100203.00;4838014;29;20061;-91
2023/08/22 00:03:56;;;;;;;1.92;1.73;;;;;;;21.88;100.00;100210.16;4819221;29;20039;-91
2023/08/22 00:06:22;;;;;;;1.35;1.25;;;;;;;21.80;100.00;100200.66;4848173;29;21496;-92
2023/08/22 00:08:48;;;;;;;3.17;2.50;;;;;;;21.57;100.00;100184.97;4837627;29;20438;-92
2023/08/22 00:11:13;;;;;;;1.48;1.38;;;;;;;21.67;100.00;100206.03;4839116;29;20050;-92
2023/08/22 00:13:39;;;;;;;1.27;1.08;;;;;;;21.49;100.00;100186.72;4822523;29;20062;-92
2023/08/22 00:16:04;;;;;;;1.10;1.00;;;;;;;21.56;100.00;100194.69;4837024;29;20177;-92
2023/08/22 00:18:30;;;;;;;2.17;1.30;;;;;;;21.63;100.00;100205.53;4821057;29;20058;-92
2023/08/22 00:20:56;;;;;;;1.50;1.30;;;;;;;21.58;100.00;100203.44;4842507;29;20046;-92
2023/08/22 00:23:22;;;;;;;1.42;1.33;;;;;;;21.72;100.00;100225.78;4835123;29;20037;-93
2023/08/22 00:25:47;;;;;;;1.50;0.82;;;;;;;21.65;100.00;100211.41;4837531;29;20038;-92
2023/08/22 00:28:14;;;;;;;2.20;1.27;;;;;;;21.59;100.00;100202.94;4835268;29;20050;-93
2023/08/22 00:30:41;;;;;;;1.88;1.73;;;;;;;21.60;100.00;100201.66;4834800;29;20038;-91
2023/08/22 00:33:06;;;;;;;1.58;1.15;;;;;;;21.60;100.00;100212.16;4805392;29;20509;-93
2023/08/22 00:35:32;;;;;;;2.08;1.45;;;;;;;21.51;100.00;100201.13;4820285;29;20043;-92
2023/08/22 00:37:58;;;;;;;1.17;0.95;;;;;;;21.56;100.00;100211.63;4821515;29;20499;-93
2023/08/22 00:40:23;;;;;;;1.70;1.60;;;;;;;21.44;100.00;100193.13;4823959;29;20046;-94
2023/08/22 00:42:50;;;;;;;1.73;1.17;;;;;;;21.48;100.00;100204.94;4834969;29;20046;-92
2023/08/22 00:45:16;;;;;;;0.70;0.70;;;;;;;21.42;100.00;100202.13;4834518;29;20185;-91
2023/08/22 00:47:41;;;;;;;0.82;0.77;;;;;;;21.50;100.00;100208.03;4843057;29;20494;-92
2023/08/22 00:50:08;;;;;;;2.05;1.83;;;;;;;21.42;100.00;100207.00;4835133;29;20380;-91
2023/08/22 00:52:36;;;;;;;1.10;0.95;;;;;;;21.39;100.00;100203.88;4816539;29;20111;-92
2023/08/22 00:55:04;;;;;;;2.72;2.03;;;;;;;21.43;100.00;100214.97;4841198;29;20156;-92
2023/08/22 00:57:29;;;;;;;2.83;2.03;;;;;;;21.32;100.00;100210.03;4824424;29;20461;-92
2023/08/22 00:59:55;;;;;;;3.53;1.25;;;;;;;21.26;100.00;100197.97;4848566;29;20044;-92
2023/08/22 01:14:14;;;;;;;2.10;1.92;;;;;;;21.21;100.00;100198.69;4818455;29;20415;-91
2023/08/22 01:16:40;;;;;;;1.85;1.67;;;;;;;21.29;100.00;100205.41;4802568;29;20054;-93
2023/08/22 01:19:07;;;;;;;2.45;1.50;;;;;;;21.28;100.00;100209.50;4777093;29;20051;-91
2023/08/22 01:21:48;;;;;;;1.55;1.35;;;;;;;21.26;100.00;100212.06;4793084;29;20293;-91
2023/08/22 01:24:14;;;;;;;2.08;1.75;;;;;;;21.25;100.00;100204.88;4806973;29;20062;-92
2023/08/22 01:26:40;;;;;;;1.40;1.23;;;;;;;21.20;100.00;100191.50;4779490;29;20555;-92
2023/08/22 01:29:10;;;;;;;2.95;1.60;;;;;;;21.21;100.00;100204.34;4793525;29;20649;-93
2023/08/22 01:31:50;;;;;;;0.95;0.80;;;;;;;21.17;100.00;100209.44;4778885;29;20310;-92
2023/08/22 01:34:22;;;;;;;1.90;1.60;;;;;;;21.12;100.00;100204.56;4793267;29;20078;-91
2023/08/22 01:36:49;;;;;;;0.80;0.80;;;;;;;21.08;100.00;100200.41;4782423;29;20559;-91
2023/08/22 01:39:15;;;;;;;1.38;1.27;;;;;;;21.09;100.00;100191.44;4789962;29;20057;-94
2023/08/22 01:41:41;;;;;;;0.38;0.38;;;;;;;21.10;100.00;100187.34;4789040;29;20074;-93
2023/08/22 01:44:07;;;;;;;2.30;1.95;;;;;;;21.09;100.00;100202.72;4805344;29;20070;-91
2023/08/22 01:46:33;;;;;;;1.55;1.25;;;;;;;21.01;100.00;100187.56;4776039;29;20218;-92
2023/08/22 01:48:59;;;;;;;1.75;1.65;;;;;;;20.95;100.00;100181.88;4776040;29;20515;-91
2023/08/22 01:51:24;;;;;;;1.15;1.13;;;;;;;20.95;100.00;100187.50;4774262;29;20084;-93
2023/08/22 01:53:50;;;;;;;3.78;1.35;;;;;;;20.93;100.00;100189.31;4798943;29;20039;-93
2023/08/22 01:56:16;;;;;;;2.47;1.60;;;;;;;20.90;100.00;100179.81;4777803;29;20057;-91
2023/08/22 01:58:41;;;;;;;1.50;1.40;;;;;;;20.80;100.00;100175.66;4805461;29;20133;-92
2023/08/22 02:01:12;;;;;;;1.33;1.23;;;;;;;20.77;100.00;100182.31;4791980;29;20047;-91
2023/08/22 02:03:38;;;;;;;1.20;1.10;;;;;;;20.77;100.00;100184.34;4787678;29;20502;-92
2023/08/22 02:06:04;;;;;;;1.85;1.25;;;;;;;20.77;100.00;100184.34;4778302;29;20050;-91
2023/08/22 02:08:30;;;;;;;0.85;0.85;;;;;;;20.73;100.00;100176.13;4791546;29;20410;-92
2023/08/22 02:10:56;;;;;;;0.77;0.77;;;;;;;20.81;100.00;100184.88;4775423;29;20038;-92
2023/08/22 02:13:21;;;;;;;1.73;1.55;;;;;;;20.82;100.00;100184.41;4810964;29;20061;-91
2023/08/22 02:15:47;;;;;;;2.08;1.20;;;;;;;20.78;100.00;100188.72;4823300;29;20085;-94
2023/08/22 02:18:13;;;;;;;0.88;0.88;;;;;;;20.65;100.00;100163.78;4806528;29;20494;-92
2023/08/22 02:20:39;;;;;;;0.65;0.65;;;;;;;20.71;100.00;100181.50;4822525;29;20207;-93
2023/08/22 02:23:04;;;;;;;2.85;1.63;;;;;;;20.76;100.00;100177.94;4831691;29;20046;-92
2023/08/22 02:25:33;;;;;;;1.20;1.10;;;;;;;20.71;100.00;100172.25;4807425;29;20477;-92
2023/08/22 02:27:59;;;;;;;2.20;1.92;;;;;;;20.68;100.00;100184.53;4823320;29;20050;-92
2023/08/22 02:30:25;;;;;;;2.45;1.90;;;;;;;20.66;100.00;100175.84;4822920;29;20457;-92
2023/08/22 02:32:50;;;;;;;1.80;1.63;;;;;;;20.77;100.00;100182.31;4806728;29;20330;-94
2023/08/22 02:35:16;;;;;;;1.15;1.13;;;;;;;20.74;100.00;100180.50;4820691;29;20600;-91
2023/08/22 02:37:42;;;;;;;2.60;1.83;;;;;;;20.69;100.00;100169.97;4808467;29;20073;-91
2023/08/22 02:40:11;;;;;;;3.63;1.30;;;;;;;20.77;100.00;100181.53;4822562;29;20045;-92
2023/08/22 02:42:38;;;;;;;1.20;1.10;;;;;;;20.77;100.00;100178.72;4808186;29;20050;-93
2023/08/22 02:45:04;;;;;;;2.63;1.65;;;;;;;20.69;100.00;100180.47;4807523;29;20581;-91
2023/08/22 02:47:31;;;;;;;3.67;3.30;;;;;;;20.70;100.00;100182.00;4807440;29;20057;-91
2023/08/22 02:49:57;;;;;;;1.63;1.33;;;;;;;20.68;100.00;100178.91;4821933;29;20574;-93
2023/08/22 02:52:24;;;;;;;1.75;1.48;;;;;;;20.66;100.00;100175.84;4807772;29;20053;-93
2023/08/22 02:54:51;;;;;;;1.20;1.10;;;;;;;20.64;100.00;100186.81;4822324;29;20056;-90
2023/08/22 02:57:16;;;;;;;1.30;0.98;;;;;;;20.60;100.00;100178.59;4819923;29;20038;-92
2023/08/22 02:59:42;;;;;;;1.27;1.10;;;;;;;20.59;100.00;100185.50;4821187;29;20410;-92
2023/08/22 03:02:08;;;;;;;2.13;1.38;;;;;;;20.59;100.00;100187.56;4821783;29;20054;-92
2023/08/22 03:04:36;;;;;;;1.67;1.58;;;;;;;20.55;100.00;100182.16;4802208;29;20113;-93
2023/08/22 03:07:03;;;;;;;2.30;2.08;;;;;;;20.44;100.00;100182.88;4834029;29;20130;-91
2023/08/22 03:09:31;;;;;;;2.05;1.65;;;;;;;20.42;100.00;100181.84;4822842;29;20056;-92
2023/08/22 03:11:57;;;;;;;2.85;2.00;;;;;;;20.46;100.00;100179.56;4821086;29;20402;-92
2023/08/22 03:14:24;;;;;;;1.50;1.20;;;;;;;20.42;100.00;100174.13;4789705;29;20061;-90
2023/08/22 03:16:50;;;;;;;0.85;0.80;;;;;;;20.42;100.00;100176.19;4792035;29;20055;-91
2023/08/22 03:19:16;;;;;;;1.17;1.08;;;;;;;20.47;100.00;100181.84;4784867;29;20191;-91
2023/08/22 03:21:42;;;;;;;1.15;1.05;;;;;;;20.36;100.00;100176.16;4787315;29;20419;-92
2023/08/22 03:24:08;;;;;;;0.85;0.85;;;;;;;20.39;100.00;100180.78;4805215;29;20063;-91
2023/08/22 03:26:33;;;;;;;1.42;1.23;;;;;;;20.36;100.00;100187.41;4784257;29;20081;-92
2023/08/22 03:29:01;;;;;;;2.15;1.80;;;;;;;20.34;100.00;100189.19;4789416;29;20550;-92
2023/08/22 03:31:28;;;;;;;1.08;1.00;;;;;;;20.34;100.00;100192.00;4789313;29;20525;-91
2023/08/22 03:33:54;;;;;;;1.48;1.38;;;;;;;20.23;100.00;100178.56;4769339;29;20057;-92
2023/08/22 03:36:20;;;;;;;1.50;1.40;;;;;;;20.28;100.00;100180.66;4776802;29;20050;-92
2023/08/22 03:38:48;;;;;;;0.80;0.80;;;;;;;20.22;100.00;100177.00;4794100;29;20049;-91
2023/08/22 03:41:13;;;;;;;1.13;0.88;;;;;;;20.26;100.00;100183.19;4785551;29;20055;-92
2023/08/22 03:43:39;;;;;;;1.85;1.35;;;;;;;20.22;100.00;100181.91;4779117;29;20422;-92
2023/08/22 03:46:06;;;;;;;1.58;1.20;;;;;;;20.27;100.00;100187.56;4787145;29;20053;-91
2023/08/22 03:48:31;;;;;;;2.60;1.38;;;;;;;20.23;100.00;100178.56;4787955;29;20042;-93
2023/08/22 03:50:57;;;;;;;1.65;1.30;;;;;;;20.27;100.00;100184.75;4788315;29;20129;-91
2023/08/22 03:53:23;;;;;;;5.35;1.95;;;;;;;20.30;100.00;100189.41;4788998;29;20065;-92
2023/08/22 03:55:49;;;;;;;1.55;1.45;;;;;;;20.27;100.00;100179.13;4785113;29;20065;-92
2023/08/22 03:58:14;;;;;;;1.63;1.52;;;;;;;20.31;100.00;100184.53;4784035;29;20500;-91
2023/08/22 04:00:40;;;;;;;2.30;1.20;;;;;;;20.25;100.00;100187.31;4788700;29;20392;-90
2023/08/22 04:03:06;;;;;;;2.00;1.80;;;;;;;20.23;100.00;100192.66;4800654;29;20237;-92
2023/08/22 04:05:32;;;;;;;2.70;2.25;;;;;;;20.18;100.00;100196.19;4784909;29;20344;-92
2023/08/22 04:07:57;;;;;;;4.35;2.25;;;;;;;20.11;100.00;100191.00;4789114;29;20054;-92
2023/08/22 04:10:23;;;;;;;1.23;1.13;;;;;;;20.11;100.00;100193.06;4799513;29;20147;-91
2023/08/22 04:12:49;;;;;;;1.38;1.27;;;;;;;20.08;100.00;100194.84;4774570;29;20046;-92
2023/08/22 04:15:15;;;;;;;2.15;1.95;;;;;;;20.10;100.00;100192.28;4785890;29;20132;-90
2023/08/22 04:17:43;;;;;;;2.40;1.33;;;;;;;20.09;100.00;100189.97;4798897;29;20054;-92
2023/08/22 04:20:10;;;;;;;1.48;1.38;;;;;;;20.04;100.00;100177.41;4787421;29;20038;-92
2023/08/22 04:22:40;;;;;;;3.80;1.60;;;;;;;20.07;100.00;100195.31;4788195;29;20057;-92
2023/08/22 04:25:10;;;;;;;1.85;1.55;;;;;;;19.95;100.00;100191.63;4772213;29;20042;-94
2023/08/22 04:27:37;;;;;;;1.48;1.02;;;;;;;19.95;100.00;100191.63;4787179;29;20074;-91
2023/08/22 04:30:04;;;;;;;5.18;2.05;;;;;;;20.01;100.00;100195.28;4799764;29;20574;-93
2023/08/22 04:32:33;;;;;;;2.08;1.42;;;;;;;19.94;100.00;100181.63;4792445;29;20142;-91
2023/08/22 04:35:00;;;;;;;14.85;4.00;;;;;;;20.03;100.00;100204.00;4787695;29;20170;-92
2023/08/22 04:37:27;;;;;;;2.90;1.83;;;;;;;20.05;100.00;100195.84;4792385;29;20053;-93
2023/08/22 04:39:52;;;;;;;3.00;2.30;;;;;;;20.11;100.00;100196.66;4786120;29;20045;-92
2023/08/22 04:42:30;;;;;;;3.28;1.98;;;;;;;20.16;100.00;100201.56;4788052;29;20042;-93
2023/08/22 04:45:04;;;;;;;1.88;1.17;;;;;;;20.16;100.00;100198.75;4788040;29;20480;-91
2023/08/22 04:47:30;;;;;;;2.25;1.90;;;;;;;20.15;100.00;100177.47;4802748;29;20073;-92
2023/08/22 04:49:56;;;;;;;1.50;1.20;;;;;;;20.22;100.00;100199.56;4786327;29;20502;-91
2023/08/22 04:52:21;;;;;;;2.42;1.00;;;;;;;20.30;100.00;100195.03;4801846;29;20114;-92
2023/08/22 04:54:47;;;;;;;0.98;0.95;;;;;;;20.35;100.00;100199.16;4787145;29;20194;-91
2023/08/22 04:57:13;;;;;;;1.80;1.65;;;;;;;20.37;100.00;100188.97;4792603;29;20137;-94
2023/08/22 04:59:38;;;;;;;1.75;1.65;;;;;;;20.45;100.00;100190.06;4771582;29;20522;-94
2023/08/22 05:02:05;;;;;;;0.75;0.75;;;;;;;20.48;100.00;100197.50;4785711;29;20047;-92
2023/08/22 05:04:31;;;;;;;2.25;2.05;;;;;;;20.64;100.00;100200.91;4780088;29;20051;-91
2023/08/22 05:06:57;;;;;;;2.88;2.63;;;;;;;20.72;100.00;100202.00;4787920;29;20051;-92
2023/08/22 05:09:22;;;;;;;2.75;1.35;;;;;;;20.78;100.00;100197.94;4781834;29;20046;-92
2023/08/22 05:11:49;;;;;;;1.23;0.95;;;;;;;20.92;100.00;100199.03;4787560;29;20077;-90
2023/08/22 05:14:16;;;;;;;0.70;0.55;;;;;;;21.05;100.00;100205.00;4772527;29;20050;-91
2023/08/22 05:16:43;;;;;;;1.63;1.42;;;;;;;21.22;100.00;100213.59;4785326;29;20134;-91
2023/08/22 05:19:09;;;;;;;3.42;1.52;;;;;;;21.39;100.00;100203.88;4793585;29;20050;-91
2023/08/22 05:21:35;;;;;;;2.17;1.80;;;;;;;21.58;100.00;100215.50;4785097;29;20173;-91
2023/08/22 05:24:01;;;;;;;2.13;1.80;;;;;;;21.70;100.00;100210.66;4787042;29;20175;-90
2023/08/22 05:26:27;;;;;;;1.42;0.93;;;;;;;21.78;100.00;100203.25;4783510;29;20046;-91
2023/08/22 05:28:52;;;;;;;1.95;1.38;;;;;;;21.98;100.00;100214.34;4768529;29;20038;-92
2023/08/22 05:31:19;;;;;;;1.35;1.25;;;;;;;22.15;100.00;100205.88;4771179;29;20050;-95
2023/08/22 05:33:45;;;;;;;1.20;1.10;;;;;;;22.31;100.00;100213.59;4778059;29;20051;-92
2023/08/22 05:36:11;;;;;;;4.80;3.10;;;;;;;22.54;100.00;100220.75;4798857;29;20048;-92
2023/08/22 05:38:37;;;;;;;3.80;1.55;;;;;;;22.71;100.00;100215.13;4787476;29;20038;-92
2023/08/22 05:41:02;;;;;;;2.45;2.25;;;;;;;22.97;100.00;100209.91;4783450;29;20054;-94
2023/08/22 05:43:28;;;;;;;1.88;1.42;;;;;;;23.20;100.00;100217.06;4789471;29;20085;-94
2023/08/22 05:45:55;;;;;;;1.60;1.30;;;;;;;23.42;100.00;100221.06;4801882;29;20058;-90
2023/08/22 05:48:21;;;;;;;1.88;0.82;;;;;;;23.79;100.00;100223.47;4790301;29;20051;-92
2023/08/22 05:50:48;;;;;;;1.55;1.30;;;;;;;23.97;100.00;100228.53;4787343;29;20049;-92
2023/08/22 05:53:13;;;;;;;1.80;1.48;;;;;;;24.14;100.00;100221.44;4774090;29;20042;-92
2023/08/22 05:55:39;;;;;;;2.17;1.90;;;;;;;24.32;100.00;100214.34;4788644;29;20388;-92
2023/08/22 05:58:05;;;;;;;1.90;1.63;;;;;;;24.49;100.00;100214.22;4785819;29;20050;-93
2023/08/22 06:00:31;;;;;;;3.10;2.42;;;;;;;24.63;100.00;100210.19;4788749;29;20042;-95
2023/08/22 06:02:58;;;;;;;0.70;0.70;;;;;;;24.85;100.00;100220.59;4806422;29;20098;-96
2023/08/22 06:05:26;;;;;;;5.82;2.03;;;;;;;24.94;100.00;100226.69;4803736;29;20066;-96
2023/08/22 06:07:53;;;;;;;1.45;1.35;;;;;;;25.11;100.00;100228.59;4797253;29;20054;-95
2023/08/22 06:10:20;;;;;;;1.00;1.00;;;;;;;25.30;100.00;100232.22;4801389;29;20073;-94
2023/08/22 06:12:46;;;;;;;1.38;1.13;;;;;;;25.48;100.00;100234.31;4817572;29;20562;-95
2023/08/22 06:15:11;;;;;;;4.32;1.80;;;;;;;25.64;100.00;100238.28;4795415;29;20046;-96
2023/08/22 06:17:37;;;;;;;9.43;2.42;;;;;;;25.79;100.00;100236.50;4794143;29;20042;-94
2023/08/22 06:20:04;;;;;;;1.00;0.90;;;;;;;26.03;100.00;100234.88;4791735;29;20111;-92
2023/08/22 06:22:30;;;;;;;1.58;1.35;;;;;;;26.21;100.00;100246.22;4777136;29;20083;-94
2023/08/22 06:24:56;;;;;;;1.98;1.27;;;;;;;26.32;100.00;100245.31;4794360;29;20054;-94
2023/08/22 06:27:22;;;;;;;1.45;1.33;;;;;;;26.37;100.00;100242.34;4792944;29;20514;-94
2023/08/22 06:29:48;;;;;;;2.15;1.95;;;;;;;26.54;100.00;100238.47;4798547;29;20049;-93
2023/08/22 06:32:15;;;;;;;1.92;1.05;;;;;;;26.71;100.00;100236.88;4792320;29;20050;-94
2023/08/22 06:34:41;;;;;;;1.10;1.00;;;;;;;26.93;100.00;100237.81;4794095;29;20046;-94
2023/08/22 06:37:06;;;;;;;7.53;2.75;;;;;;;26.98;100.00;100236.91;4792589;29;20139;-96
2023/08/22 06:39:33;;;;;;;2.17;1.58;;;;;;;27.19;100.00;100230.03;4791990;29;20072;-96
2023/08/22 06:41:59;;;;;;;3.05;2.42;;;;;;;27.42;100.00;100240.97;4795848;29;20153;-95
2023/08/22 06:44:29;;;;;;;1.85;1.75;;;;;;;27.59;100.00;100227.16;4793542;29;20085;-96
2023/08/22 06:46:55;;;;;;;2.80;1.58;;;;;;;27.77;100.00;100231.94;4803360;29;20484;-96
2023/08/22 06:49:20;;;;;;;1.75;1.65;;;;;;;27.96;100.00;100234.63;4793440;29;20121;-95
2023/08/22 06:51:46;;;;;;;2.45;1.73;;;;;;;28.20;100.00;100229.38;4778239;29;20127;-96
2023/08/22 06:54:12;;;;;;;0.93;0.90;;;;;;;28.33;100.00;100222.84;4806695;29;20046;-95
2023/08/22 06:56:38;;;;;;;2.05;1.90;;;;;;;28.58;100.00;100229.75;4790468;29;20043;-95
2023/08/22 06:59:04;;;;;;;1.70;1.60;;;;;;;28.71;100.00;100232.53;4790727;29;20039;-95
2023/08/22 07:01:30;;;;;;;1.65;1.23;;;;;;;28.79;100.00;100220.41;4810473;29;20050;-96
2023/08/22 07:03:55;;;;;;;1.85;1.75;;;;;;;28.92;99.59;100215.34;4808782;29;20156;-96
2023/08/22 07:06:21;;;;;;;1.13;1.05;;;;;;;28.85;100.00;100201.03;4796353;29;20057;-95
2023/08/22 07:08:47;;;;;;;2.00;1.90;;;;;;;29.22;98.53;100229.06;4797427;29;20049;-95
2023/08/22 07:11:13;;;;;;;1.50;1.40;;;;;;;29.12;95.24;100208.06;4798192;29;20042;-95
2023/08/22 07:13:40;;;;;;;2.50;2.25;;;;;;;29.22;95.58;100222.59;4837959;29;20054;-96
2023/08/22 07:16:05;;;;;;;2.25;1.65;;;;;;;29.54;96.14;100232.31;4830826;29;20090;-96
2023/08/22 07:18:31;;;;;;;1.63;1.25;;;;;;;29.52;92.57;100209.22;4835433;29;20058;-96
2023/08/22 07:21:03;;;;;;;3.22;2.80;;;;;;;29.76;90.47;100208.00;4822963;29;20133;-96
2023/08/22 07:23:32;;;;;;;;;;;;;;;30.24;89.47;100240.56;4843741;29;20074;-96
2023/08/22 07:26:22;;;;;;;2.03;1.88;;;;;;;30.23;86.99;100209.66;4842332;29;19932;-96
2023/08/22 07:28:49;;;;;;;0.77;0.77;;;;;;;30.23;84.58;100204.69;4853630;29;20069;-96
2023/08/22 07:43:00;;;;;;;1.67;1.53;;;;;;;30.74;79.00;100235.25;3197876;27;20307;-92
2023/08/22 07:45:26;;;;;;;1.75;1.33;;;;;;;30.50;83.79;100217.31;4807492;29;20095;-91
2023/08/22 07:47:51;;;;;;;2.08;1.83;;;;;;;30.71;83.54;100220.00;4825487;29;20061;-96
2023/08/22 07:50:17;;;;;;;2.83;2.38;;;;;;;31.19;81.69;100229.47;4809424;29;20092;-95
2023/08/22 07:52:46;;;;;;;1.10;1.00;;;;;;;31.15;79.01;100206.19;4822559;29;20089;-96
2023/08/22 07:55:12;;;;;;;1.63;1.15;;;;;;;31.35;77.26;100210.91;4845157;29;20035;-96
2023/08/22 07:57:38;;;;;;;2.22;1.90;;;;;;;31.53;77.03;100211.81;4823876;29;20057;-96
2023/08/22 08:00:13;;;;;;;1.20;1.10;;;;;;;31.83;73.62;100223.13;4822261;29;20073;-96
2023/08/22 08:02:39;;;;;;;3.50;2.65;;;;;;;31.90;70.64;100233.06;4829343;29;20096;-95
2023/08/22 08:05:08;;;;;;;4.88;2.17;;;;;;;31.75;70.04;100207.31;4837612;29;20046;-96
2023/08/22 08:07:34;;;;;;;5.72;2.50;;;;;;;31.72;70.38;100214.22;4812808;29;20064;-96
2023/08/22 08:10:04;;;;;;;1.98;1.38;;;;;;;32.22;70.33;100230.22;4796922;29;20042;-96
2023/08/22 08:12:30;;;;;;;2.53;1.33;;;;;;;32.00;73.44;100202.38;4811241;29;20119;-95
2023/08/22 08:14:56;;;;;;;1.63;1.52;;;;;;;32.28;70.94;100204.91;4819604;29;20505;-96
2023/08/22 08:17:25;;;;;;;1.85;1.73;;;;;;;32.42;69.95;100207.50;4808608;29;20042;-96
2023/08/22 08:19:51;;;;;;;1.77;1.30;;;;;;;32.44;69.53;100210.53;4805379;29;20074;-95
2023/08/22 08:22:22;;;;;;;1.45;1.35;;;;;;;32.12;71.17;100203.50;4821185;29;20137;-96
2023/08/22 08:25:02;;;;;;;1.30;0.95;;;;;;;32.44;72.20;100199.03;4810663;29;20038;-96
2023/08/22 08:27:39;;;;;;;1.90;1.42;;;;;;;32.87;68.15;100220.72;4829683;29;20595;-96
2023/08/22 08:30:06;;;;;;;1.40;1.30;;;;;;;32.80;67.99;100205.06;4823776;29;20046;-95
2023/08/22 08:32:37;;;;;;;1.50;1.38;;;;;;;33.00;67.58;100212.50;4814040;29;20035;-96
2023/08/22 08:35:06;;;;;;;2.58;1.50;;;;;;;33.23;64.62;100215.19;4817877;29;20118;-94
2023/08/22 08:37:35;;;;;;;3.13;1.75;;;;;;;33.04;61.88;100203.50;4815148;29;20042;-96
2023/08/22 08:40:08;;;;;;;1.63;1.52;;;;;;;32.90;62.52;100205.94;4840423;29;20039;-96
2023/08/22 08:42:47;;;;;;;1.33;1.20;;;;;;;33.31;62.46;100203.59;4819956;29;20058;-96
2023/08/22 08:45:28;;;;;;;2.08;1.88;;;;;;;33.69;60.95;100209.66;4840854;29;20073;-95
2023/08/22 08:48:45;;;;;;;2.47;1.95;;;;;;;33.62;58.43;100204.72;4845305;29;20041;-96
2023/08/22 11:02:00;;;;;;;2.38;1.83;;;;;;;36.85;39.08;100142.56;4838696;29;20050;-96
2023/08/22 11:04:29;;;;;;;1.33;1.25;;;;;;;36.97;37.90;100136.09;4798425;29;20517;-95
2023/08/22 11:06:54;;;;;;;1.58;1.27;;;;;;;37.24;38.64;100145.94;4812352;29;20050;-96
2023/08/22 11:09:20;;;;;;;1.25;1.15;;;;;;;37.43;38.10;100147.88;4795268;29;20119;-95
2023/08/22 11:11:46;;;;;;;1.60;1.50;;;;;;;37.57;38.94;100148.09;4826776;29;20061;-94
2023/08/22 11:14:11;;;;;;;1.92;1.55;;;;;;;37.69;39.56;100151.75;4812801;29;20034;-96
2023/08/22 11:16:37;;;;;;;1.77;1.67;;;;;;;37.79;38.54;100144.47;4809145;29;20058;-95
2023/08/22 11:19:03;;;;;;;1.70;1.60;;;;;;;37.14;35.57;100132.94;4824949;29;20044;-96
2023/08/22 11:21:30;;;;;;;1.95;1.70;;;;;;;37.17;37.59;100137.47;4816581;29;20049;-95
2023/08/22 11:23:56;;;;;;;1.25;1.15;;;;;;;37.11;38.03;100131.28;4813999;29;20046;-96
2023/08/22 11:26:22;;;;;;;1.05;1.05;;;;;;;37.30;39.29;100128.22;4792670;29;20078;-95
2023/08/22 11:28:48;;;;;;;0.95;0.95;;;;;;;37.57;38.00;100128.56;4810251;29;20088;-95
2023/08/22 11:31:24;;;;;;;1.70;1.60;;;;;;;37.32;39.19;100117.56;4811990;29;20080;-96
2023/08/22 11:33:51;;;;;;;1.02;1.02;;;;;;;36.91;38.71;100108.31;4805566;29;20126;-95
2023/08/22 11:36:17;;;;;;;2.00;1.50;;;;;;;36.75;38.74;100103.56;4819815;29;20042;-95
2023/08/22 11:38:47;;;;;;;1.33;1.23;;;;;;;37.10;39.18;100104.50;4807857;29;20497;-96
2023/08/22 11:41:13;;;;;;;2.53;1.45;;;;;;;37.15;37.93;100111.31;4813902;29;20046;-96
2023/08/22 11:43:46;;;;;;;2.15;1.65;;;;;;;37.29;34.52;100103.56;4830284;29;20118;-95
2023/08/22 11:46:12;;;;;;;1.73;1.63;;;;;;;37.06;34.88;100120.81;4828937;29;20058;-95
2023/08/22 11:48:44;;;;;;;1.30;1.20;;;;;;;36.83;36.99;100116.44;4802583;29;20046;-96
2023/08/22 11:51:17;;;;;;;1.58;1.48;;;;;;;37.16;37.33;100124.41;4801416;29;20038;-95
2023/08/22 11:53:43;;;;;;;1.35;1.25;;;;;;;36.96;37.03;100120.91;4821047;29;20653;-94
2023/08/22 11:56:09;;;;;;;1.35;1.25;;;;;;;37.11;35.80;100117.59;4814019;29;20075;-93
2023/08/22 11:58:35;;;;;;;2.15;1.52;;;;;;;36.57;35.15;100119.63;4819460;29;20108;-93
2023/08/22 12:01:01;;;;;;;1.25;1.15;;;;;;;36.90;35.68;100132.81;4823933;29;20073;-94
2023/08/22 12:03:39;;;;;;;2.72;1.35;;;;;;;37.31;35.41;100118.16;4814241;29;20509;-93
2023/08/22 12:06:23;;;;;;;1.70;1.60;;;;;;;37.42;35.60;100116.66;4803888;29;20144;-93
2023/08/22 12:09:00;;;;;;;1.58;1.48;;;;;;;37.14;35.93;100109.78;4800678;29;20925;-92
2023/08/22 12:11:27;;;;;;;1.60;1.20;;;;;;;37.26;34.12;100104.81;4838500;29;20112;-93
2023/08/22 12:13:55;;;;;;;1.90;1.70;;;;;;;36.97;33.70;100089.84;4818175;29;20049;-94
2023/08/22 12:16:31;;;;;;;;;;;;;;;;;;;;;
2023/08/22 12:18:57;;;;;;;1.30;1.20;;;;;;;36.98;34.68;100100.78;4817003;29;20465;-92
2023/08/22 12:21:23;;;;;;;4.95;1.20;;;;;;;37.17;33.06;100108.53;4830407;29;20050;-92
2023/08/22 12:23:49;;;;;;;1.60;1.20;;;;;;;37.27;33.87;100097.66;4835940;29;20046;-92
2023/08/22 12:26:15;;;;;;;1.52;1.33;;;;;;;37.42;34.04;100100.06;4834633;29;20102;-92
2023/08/22 12:28:41;;;;;;;1.88;1.42;;;;;;;37.74;32.63;100113.75;4789604;29;20053;-92
2023/08/22 12:31:06;;;;;;;0.95;0.95;;;;;;;37.21;31.58;100103.03;4818796;29;20334;-92
2023/08/22 12:33:35;;;;;;;2.13;1.60;;;;;;;37.35;32.27;100101.06;4790556;29;20416;-91
2023/08/22 12:36:00;;;;;;;1.33;1.20;;;;;;;36.93;33.50;100091.09;4799931;29;20046;-93
2023/08/22 12:38:26;;;;;;;1.17;1.08;;;;;;;37.01;33.63;100107.44;4814856;29;20050;-91
2023/08/22 12:40:51;;;;;;;2.40;1.25;;;;;;;37.32;33.36;100102.31;4816270;29;20492;-91
2023/08/22 12:43:17;;;;;;;1.50;1.40;;;;;;;37.53;33.26;100087.78;4813421;29;20418;-92
2023/08/22 12:45:42;;;;;;;1.42;1.10;;;;;;;37.82;31.04;100082.41;4821071;29;20046;-92
2023/08/22 12:48:08;;;;;;;1.35;1.23;;;;;;;37.80;31.27;100093.13;4811514;29;20058;-94
2023/08/22 12:50:34;;;;;;;1.30;1.20;;;;;;;37.68;31.42;100081.53;4819928;29;20042;-92
2023/08/22 12:52:59;;;;;;;1.67;1.55;;;;;;;37.92;32.01;100088.09;4818651;29;20061;-92
2023/08/22 12:55:25;;;;;;;1.15;1.02;;;;;;;37.72;29.37;100087.59;4841088;29;20483;-92
2023/08/22 12:57:51;;;;;;;1.80;1.40;;;;;;;37.61;29.47;100068.03;4818859;29;20175;-91
2023/08/22 13:00:17;;;;;;;1.70;1.50;;;;;;;37.56;29.76;100062.66;4797182;29;20138;-91
2023/08/22 13:02:43;;;;;;;0.82;0.82;;;;;;;37.65;30.22;100050.94;4814965;29;20110;-91
2023/08/22 13:05:09;;;;;;;1.25;1.15;;;;;;;37.63;30.83;100068.19;4827558;29;20057;-92
2023/08/22 13:07:34;;;;;;;1.27;1.15;;;;;;;37.87;30.79;100062.41;4815916;29;20042;-92
2023/08/22 13:10:00;;;;;;;1.42;1.33;;;;;;;37.85;31.43;100060.16;4834638;29;20381;-92
2023/08/22 13:12:26;;;;;;;1.27;1.17;;;;;;;38.08;29.93;100059.41;4816981;29;20496;-93
2023/08/22 13:14:51;;;;;;;1.17;1.17;;;;;;;38.18;29.44;100071.59;4834576;29;20133;-91
2023/08/22 13:17:17;;;;;;;7.13;1.83;;;;;;;38.29;27.93;100070.84;4834586;29;20559;-90
2023/08/22 13:19:43;;;;;;;1.15;1.05;;;;;;;38.26;28.43;100057.59;4836934;29;20511;-96
2023/08/22 13:22:09;;;;;;;0.80;0.80;;;;;;;38.47;29.21;100048.00;4801568;29;20042;-96
2023/08/22 13:24:34;;;;;;;1.33;1.23;;;;;;;38.16;30.17;100054.88;4808398;29;20058;-96
2023/08/22 13:27:00;;;;;;;1.60;1.50;;;;;;;38.00;30.05;100029.94;4821072;29;20107;-95
2023/08/22 13:29:25;;;;;;;2.10;1.25;;;;;;;37.85;29.36;100037.00;4808215;29;20527;-96
2023/08/22 13:31:51;;;;;;;0.93;0.88;;;;;;;38.01;29.35;100054.63;4799825;29;20080;-96
2023/08/22 13:34:18;;;;;;;1.55;1.23;;;;;;;38.02;30.01;100032.94;4819244;29;20057;-95
2023/08/22 13:36:43;;;;;;;2.15;1.33;;;;;;;37.94;30.83;100029.53;4823474;29;20088;-96
2023/08/22 13:39:10;;;;;;;1.42;1.10;;;;;;;37.95;30.36;100025.25;4800922;29;20073;-96
2023/08/22 13:41:36;;;;;;;2.28;1.48;;;;;;;38.04;31.13;100045.44;4804761;29;20038;-95
2023/08/22 13:44:01;;;;;;;1.50;1.20;;;;;;;37.94;30.91;100027.41;4805286;29;20110;-95
2023/08/22 13:46:27;;;;;;;2.17;2.00;;;;;;;38.26;30.79;100035.19;4810345;29;20118;-96
2023/08/22 13:48:53;;;;;;;3.05;2.35;;;;;;;38.05;30.30;100025.91;4799112;29;20055;-96
2023/08/22 13:51:18;;;;;;;1.63;1.40;;;;;;;37.52;31.55;100036.34;4807676;29;20042;-94
2023/08/22 13:53:44;;;;;;;2.15;1.83;;;;;;;37.39;32.17;100046.38;4791211;29;20046;-96
2023/08/22 13:56:12;;;;;;;1.38;1.27;;;;;;;37.46;32.79;100030.91;4791298;29;20053;-96